Time;durP1;ratioP1;P1;durP2;ratioP2;P2;SDS_P1;SDS_P2;PMS_P1;PMS_P2;Temp;Humidity;BMP_temperature;BMP_pressure;BME280_temperature;BME280_humidity;BME280_pressure;Samples;Min_cycle;Max_cycle;Signal;HPM_P1;HPM_P2
2023/04/18 00:01:40;;;;;;;38.92;16.05;;;;;;;;;;4940131;29;20396;-79
2023/04/18 00:04:07;;;;;;;35.35;15.80;;;;;;;;;;4940942;29;20131;-80
2023/04/18 00:06:37;;;;;;;33.10;14.32;;;;;;;;;;4946474;29;20063;-81
2023/04/18 00:09:04;;;;;;;34.22;14.32;;;;;;;;;;4930450;29;20138;-82
2023/04/18 00:11:31;;;;;;;38.13;14.70;;;;;;;;;;4937887;29;20139;-80
2023/04/18 00:13:58;;;;;;;34.92;14.50;;;;;;;;;;4937004;29;20134;-81
2023/04/18 00:16:27;;;;;;;31.08;14.02;;;;;;;;;;4918019;29;20130;-80
2023/04/18 00:18:55;;;;;;;30.70;12.93;;;;;;;;;;4936861;29;20103;-80
2023/04/18 00:21:25;;;;;;;24.92;12.68;;;;;;;;;;4936685;29;20126;-79
2023/04/18 00:23:51;;;;;;;34.80;12.90;;;;;;;;;;4934712;29;20059;-80
2023/04/18 00:26:18;;;;;;;30.75;12.48;;;;;;;;;;4934723;29;20055;-79
2023/04/18 00:28:46;;;;;;;25.13;10.77;;;;;;;;;;4917837;29;20264;-79
2023/04/18 00:31:13;;;;;;;25.60;11.23;;;;;;;;;;4935680;29;20107;-81
2023/04/18 00:33:40;;;;;;;26.20;10.98;;;;;;;;;;4902922;29;20051;-81
2023/04/18 00:36:06;;;;;;;25.98;10.77;;;;;;;;;;4919324;29;20346;-81
2023/04/18 00:38:34;;;;;;;25.30;11.23;;;;;;;;;;4900052;29;20050;-80
2023/04/18 00:41:01;;;;;;;30.15;12.20;;;;;;;;;;4902763;29;20457;-81
2023/04/18 00:43:27;;;;;;;26.80;11.60;;;;;;;;;;4912436;29;20087;-80
2023/04/18 00:45:55;;;;;;;26.35;11.95;;;;;;;;;;4934345;29;20044;-81
2023/04/18 00:48:24;;;;;;;26.90;11.82;;;;;;;;;;4942900;29;20051;-81
2023/04/18 00:50:52;;;;;;;29.08;12.18;;;;;;;;;;4937811;29;20047;-81
2023/04/18 00:53:19;;;;;;;30.13;12.13;;;;;;;;;;4935234;29;20063;-80
2023/04/18 00:55:46;;;;;;;24.42;11.18;;;;;;;;;;4935223;29;20071;-80
2023/04/18 00:58:13;;;;;;;25.35;11.70;;;;;;;;;;4935184;29;20161;-81
2023/04/18 01:00:39;;;;;;;25.67;10.60;;;;;;;;;;4918789;29;20245;-81
2023/04/18 01:03:07;;;;;;;28.15;11.05;;;;;;;;;;4932412;29;20048;-81
2023/04/18 01:05:35;;;;;;;23.48;10.40;;;;;;;;;;4918571;29;20074;-81
2023/04/18 01:08:02;;;;;;;26.85;11.00;;;;;;;;;;4936138;29;20043;-81
2023/04/18 01:10:29;;;;;;;24.60;12.00;;;;;;;;;;4938081;29;20078;-81
2023/04/18 01:13:08;;;;;;;29.88;11.35;;;;;;;;;;4951631;29;20047;-80
2023/04/18 01:15:35;;;;;;;27.40;11.30;;;;;;;;;;4951697;29;20048;-81
2023/04/18 01:18:02;;;;;;;29.13;11.10;;;;;;;;;;4950600;29;20031;-80
2023/04/18 01:20:30;;;;;;;23.60;10.13;;;;;;;;;;4951990;29;20095;-80
2023/04/18 01:22:57;;;;;;;24.17;10.02;;;;;;;;;;4933521;29;20209;-79
2023/04/18 01:25:23;;;;;;;24.63;10.18;;;;;;;;;;4952002;29;20047;-80
2023/04/18 01:27:50;;;;;;;21.45;9.88;;;;;;;;;;4949161;29;20075;-81
2023/04/18 01:30:17;;;;;;;28.85;10.43;;;;;;;;;;4950128;29;20111;-82
2023/04/18 01:32:43;;;;;;;27.75;10.65;;;;;;;;;;4950160;29;20099;-81
2023/04/18 01:35:10;;;;;;;26.38;10.57;;;;;;;;;;4921877;29;20040;-81
2023/04/18 01:37:37;;;;;;;21.45;9.65;;;;;;;;;;4918132;29;20043;-81
2023/04/18 01:40:05;;;;;;;21.00;10.07;;;;;;;;;;4916830;29;20051;-82
2023/04/18 01:42:32;;;;;;;22.70;10.65;;;;;;;;;;4931734;29;20070;-81
2023/04/18 01:44:58;;;;;;;20.85;9.80;;;;;;;;;;4932937;29;20050;-82
2023/04/18 01:47:25;;;;;;;23.98;9.75;;;;;;;;;;4934069;29;20056;-81
2023/04/18 01:49:52;;;;;;;20.48;9.95;;;;;;;;;;4906474;29;20118;-81
2023/04/18 01:52:19;;;;;;;21.95;9.77;;;;;;;;;;4916299;29;20052;-82
2023/04/18 01:54:45;;;;;;;23.42;10.55;;;;;;;;;;4916205;29;20130;-80
2023/04/18 01:57:12;;;;;;;23.48;10.38;;;;;;;;;;4899174;29;20620;-81
2023/04/18 01:59:40;;;;;;;22.30;10.55;;;;;;;;;;4916571;29;20145;-81
2023/04/18 02:02:07;;;;;;;25.50;10.65;;;;;;;;;;4900211;29;20058;-80
2023/04/18 02:04:34;;;;;;;27.90;10.85;;;;;;;;;;4917165;29;20052;-81
2023/04/18 02:07:01;;;;;;;27.52;11.98;;;;;;;;;;4899647;29;20180;-81
2023/04/18 02:09:27;;;;;;;26.17;11.68;;;;;;;;;;4915114;29;20431;-82
2023/04/18 02:11:58;;;;;;;33.67;11.13;;;;;;;;;;4931878;29;20478;-80
2023/04/18 02:14:25;;;;;;;32.42;11.93;;;;;;;;;;4916384;29;20508;-79
2023/04/18 02:16:52;;;;;;;32.70;11.60;;;;;;;;;;4929544;29;20063;-82
2023/04/18 02:19:19;;;;;;;39.38;12.70;;;;;;;;;;4942498;29;20074;-82
2023/04/18 02:21:46;;;;;;;28.02;12.00;;;;;;;;;;4912428;29;20044;-81
2023/04/18 02:24:13;;;;;;;32.08;12.73;;;;;;;;;;4912327;29;20423;-80
2023/04/18 02:26:41;;;;;;;35.05;12.70;;;;;;;;;;4912400;29;20051;-80
2023/04/18 02:29:07;;;;;;;50.47;15.82;;;;;;;;;;4931171;29;20320;-83
2023/04/18 02:31:35;;;;;;;52.50;13.60;;;;;;;;;;4933288;29;20051;-81
2023/04/18 02:34:02;;;;;;;62.42;14.30;;;;;;;;;;4916469;29;20389;-80
2023/04/18 02:36:29;;;;;;;49.35;14.00;;;;;;;;;;4935141;29;20361;-82
2023/04/18 02:38:56;;;;;;;37.85;14.15;;;;;;;;;;4915637;29;20110;-81
2023/04/18 02:41:22;;;;;;;34.65;14.43;;;;;;;;;;4901019;29;20040;-82
2023/04/18 02:43:49;;;;;;;41.70;14.57;;;;;;;;;;4916522;29;20051;-82
2023/04/18 02:46:20;;;;;;;41.30;15.68;;;;;;;;;;4915114;29;20491;-82
2023/04/18 02:48:47;;;;;;;54.22;15.95;;;;;;;;;;4924239;29;20052;-81
2023/04/18 02:51:15;;;;;;;52.75;17.60;;;;;;;;;;4917035;29;20044;-81
2023/04/18 02:53:41;;;;;;;65.60;18.20;;;;;;;;;;4932689;29;20071;-80
2023/04/18 02:56:08;;;;;;;51.20;18.25;;;;;;;;;;4932220;29;20514;-80
2023/04/18 02:58:58;;;;;;;67.25;19.58;;;;;;;;;;4926747;29;20075;-81
2023/04/18 03:01:43;;;;;;;51.25;20.30;;;;;;;;;;4933007;29;20047;-81
2023/04/18 03:04:12;;;;;;;54.13;20.23;;;;;;;;;;4933857;29;20473;-81
2023/04/18 03:06:52;;;;;;;62.75;20.38;;;;;;;;;;4933760;29;20052;-80
2023/04/18 03:09:18;;;;;;;87.38;21.58;;;;;;;;;;4916232;29;20055;-80
2023/04/18 03:11:51;;;;;;;93.53;23.80;;;;;;;;;;4933668;29;20147;-81
2023/04/18 03:14:22;;;;;;;123.93;23.50;;;;;;;;;;4934431;29;20107;-82
2023/04/18 03:16:52;;;;;;;55.92;22.05;;;;;;;;;;4935304;29;20499;-81
2023/04/18 03:19:25;;;;;;;73.97;24.98;;;;;;;;;;4920534;29;20067;-82
2023/04/18 03:21:53;;;;;;;140.77;24.70;;;;;;;;;;4935538;29;20060;-81
2023/04/18 03:24:21;;;;;;;123.38;25.65;;;;;;;;;;4934584;29;20153;-81
2023/04/18 03:26:50;;;;;;;128.23;26.45;;;;;;;;;;4933950;29;20070;-81
2023/04/18 03:29:20;;;;;;;101.75;27.80;;;;;;;;;;4920095;29;20155;-83
2023/04/18 03:31:47;;;;;;;152.73;29.58;;;;;;;;;;4918665;29;20079;-81
2023/04/18 03:34:13;;;;;;;153.55;30.48;;;;;;;;;;4932199;29;20504;-80
2023/04/18 03:36:40;;;;;;;131.25;31.52;;;;;;;;;;4913801;29;20166;-81
2023/04/18 03:39:13;;;;;;;137.68;32.28;;;;;;;;;;4895075;29;20077;-81
2023/04/18 03:41:40;;;;;;;100.72;32.17;;;;;;;;;;4896882;29;20116;-82
2023/04/18 03:44:07;;;;;;;117.95;33.85;;;;;;;;;;4898066;29;23965;-81
2023/04/18 03:46:36;;;;;;;108.55;35.33;;;;;;;;;;4920601;29;20103;-82
2023/04/18 03:49:03;;;;;;;120.72;38.63;;;;;;;;;;4924522;29;20206;-82
2023/04/18 03:51:31;;;;;;;117.93;40.22;;;;;;;;;;4934596;29;20051;-82
2023/04/18 03:53:58;;;;;;;117.50;37.83;;;;;;;;;;4932318;29;20058;-81
2023/04/18 03:56:25;;;;;;;114.78;41.40;;;;;;;;;;4933021;29;20515;-82
2023/04/18 03:58:53;;;;;;;110.50;40.50;;;;;;;;;;4934673;29;20075;-80
2023/04/18 04:01:21;;;;;;;113.03;41.50;;;;;;;;;;4932395;29;20054;-82
2023/04/18 04:03:50;;;;;;;118.55;41.85;;;;;;;;;;4932421;29;20045;-79
2023/04/18 04:06:17;;;;;;;113.93;42.90;;;;;;;;;;4936139;29;20043;-81
2023/04/18 04:08:43;;;;;;;116.07;44.08;;;;;;;;;;4931244;29;20043;-80
2023/04/18 04:11:10;;;;;;;115.10;43.78;;;;;;;;;;4937237;29;20096;-79
2023/04/18 04:13:37;;;;;;;114.57;41.45;;;;;;;;;;4945305;29;20056;-80
2023/04/18 04:16:05;;;;;;;120.50;42.60;;;;;;;;;;4928336;29;20043;-80
2023/04/18 04:18:32;;;;;;;112.70;42.10;;;;;;;;;;4933764;29;20039;-81
2023/04/18 04:21:01;;;;;;;112.32;43.78;;;;;;;;;;4914401;29;20064;-81
2023/04/18 04:23:49;;;;;;;101.28;41.95;;;;;;;;;;4917360;29;20415;-81
2023/04/18 04:26:30;;;;;;;109.03;44.50;;;;;;;;;;4918740;29;20075;-79
2023/04/18 04:29:12;;;;;;;100.45;40.75;;;;;;;;;;4918547;29;20039;-83
2023/04/18 04:31:40;;;;;;;98.55;41.08;;;;;;;;;;4916523;29;20132;-82
2023/04/18 04:34:07;;;;;;;107.72;42.13;;;;;;;;;;4916129;29;20047;-82
2023/04/18 04:36:34;;;;;;;102.28;41.90;;;;;;;;;;4915908;29;20727;-83
2023/04/18 04:39:07;;;;;;;103.07;42.70;;;;;;;;;;4917102;29;20512;-82
2023/04/18 04:41:56;;;;;;;96.45;41.92;;;;;;;;;;4902907;29;20058;-83
2023/04/18 04:44:30;;;;;;;99.85;41.05;;;;;;;;;;4916137;29;20669;-83
2023/04/18 04:47:06;;;;;;;95.50;39.92;;;;;;;;;;4899681;29;20047;-84
2023/04/18 04:49:52;;;;;;;109.50;44.30;;;;;;;;;;4935903;29;20135;-83
2023/04/18 04:52:19;;;;;;;102.25;44.10;;;;;;;;;;4921579;29;20044;-82
2023/04/18 04:54:45;;;;;;;98.07;40.88;;;;;;;;;;4904863;29;20394;-82
2023/04/18 04:57:15;;;;;;;100.45;42.13;;;;;;;;;;4911640;29;20040;-82
2023/04/18 04:59:41;;;;;;;97.47;40.10;;;;;;;;;;4922397;29;20071;-83
2023/04/18 05:02:09;;;;;;;93.05;39.75;;;;;;;;;;4939887;29;20048;-81
2023/04/18 05:04:36;;;;;;;95.50;39.95;;;;;;;;;;4906798;29;20054;-80
2023/04/18 05:07:02;;;;;;;88.63;38.38;;;;;;;;;;4907213;29;20051;-82
2023/04/18 05:09:29;;;;;;;90.82;39.40;;;;;;;;;;4913819;29;20047;-81
2023/04/18 05:11:56;;;;;;;84.72;37.50;;;;;;;;;;4913661;29;20531;-81
2023/04/18 05:14:22;;;;;;;83.15;38.13;;;;;;;;;;4931730;29;20245;-80
2023/04/18 05:16:49;;;;;;;80.82;37.58;;;;;;;;;;4931898;29;20078;-80
2023/04/18 05:19:15;;;;;;;78.63;38.53;;;;;;;;;;4929554;29;20043;-83
2023/04/18 05:21:42;;;;;;;80.72;38.20;;;;;;;;;;4931897;29;20043;-83
2023/04/18 05:24:08;;;;;;;83.13;36.42;;;;;;;;;;4914426;29;20040;-82
2023/04/18 05:26:35;;;;;;;90.53;36.75;;;;;;;;;;4911634;29;20441;-81
2023/04/18 05:29:02;;;;;;;74.32;35.42;;;;;;;;;;4914675;29;20139;-83
2023/04/18 05:31:29;;;;;;;77.55;36.53;;;;;;;;;;4946146;29;20063;-83
2023/04/18 05:33:56;;;;;;;77.00;35.20;;;;;;;;;;4932159;29;20051;-83
2023/04/18 05:36:22;;;;;;;68.97;33.63;;;;;;;;;;4947127;28;20051;-81
2023/04/18 05:38:49;;;;;;;72.53;32.63;;;;;;;;;;4932548;29;20051;-81
2023/04/18 05:41:17;;;;;;;69.93;34.22;;;;;;;;;;4915044;29;20058;-83
2023/04/18 05:43:43;;;;;;;72.95;32.85;;;;;;;;;;4929951;29;20056;-82
2023/04/18 05:46:27;;;;;;;65.80;31.35;;;;;;;;;;4931441;29;20080;-83
2023/04/18 05:48:54;;;;;;;76.35;32.83;;;;;;;;;;4919818;29;20052;-83
2023/04/18 05:51:20;;;;;;;69.72;33.33;;;;;;;;;;4914652;29;20473;-81
2023/04/18 05:53:47;;;;;;;69.78;33.10;;;;;;;;;;4931169;29;20043;-83
2023/04/18 05:56:13;;;;;;;74.22;33.90;;;;;;;;;;4932872;29;20510;-82
2023/04/18 05:58:40;;;;;;;77.75;34.55;;;;;;;;;;4915007;29;20103;-83
2023/04/18 06:01:07;;;;;;;80.32;36.05;;;;;;;;;;4914716;29;20495;-82
2023/04/18 06:03:34;;;;;;;80.20;34.60;;;;;;;;;;4916018;29;20064;-80
2023/04/18 06:06:01;;;;;;;77.57;37.00;;;;;;;;;;4916449;29;20060;-81
2023/04/18 06:08:28;;;;;;;82.50;35.40;;;;;;;;;;4918838;29;20051;-81
2023/04/18 06:10:55;;;;;;;84.03;37.95;;;;;;;;;;4936008;29;20501;-81
2023/04/18 06:13:21;;;;;;;83.88;38.10;;;;;;;;;;4901632;29;20500;-81
2023/04/18 06:15:48;;;;;;;118.95;37.63;;;;;;;;;;4935284;29;20090;-81
2023/04/18 06:18:15;;;;;;;146.43;38.50;;;;;;;;;;4936886;29;20102;-82
2023/04/18 06:20:42;;;;;;;100.85;38.53;;;;;;;;;;4918568;29;20551;-80
2023/04/18 06:23:09;;;;;;;111.38;39.20;;;;;;;;;;4935150;29;20126;-82
2023/04/18 06:25:36;;;;;;;92.22;38.72;;;;;;;;;;4935339;29;20043;-83
2023/04/18 06:28:03;;;;;;;91.90;38.70;;;;;;;;;;4917753;29;20065;-83
2023/04/18 06:30:29;;;;;;;105.90;38.63;;;;;;;;;;4935120;29;20051;-81
2023/04/18 06:32:56;;;;;;;94.78;39.63;;;;;;;;;;4936372;29;20107;-83
2023/04/18 06:35:23;;;;;;;90.72;38.30;;;;;;;;;;4936535;29;20092;-82
2023/04/18 06:37:52;;;;;;;99.70;40.35;;;;;;;;;;4919723;29;20114;-83
2023/04/18 06:40:19;;;;;;;92.95;39.72;;;;;;;;;;4936899;29;20036;-82
2023/04/18 06:42:45;;;;;;;98.30;39.58;;;;;;;;;;4916994;29;20056;-82
2023/04/18 06:45:12;;;;;;;108.28;40.33;;;;;;;;;;4917267;29;20071;-82
2023/04/18 06:47:39;;;;;;;109.15;38.25;;;;;;;;;;4932889;29;20058;-82
2023/04/18 06:50:06;;;;;;;107.32;37.50;;;;;;;;;;4956746;29;20031;-82
2023/04/18 06:52:39;;;;;;;103.68;37.85;;;;;;;;;;4955914;29;20040;-82
2023/04/18 06:55:07;;;;;;;102.82;36.40;;;;;;;;;;4953784;29;20118;-81
2023/04/18 06:57:34;;;;;;;97.03;37.30;;;;;;;;;;4934008;29;20054;-82
2023/04/18 07:00:01;;;;;;;110.65;37.83;;;;;;;;;;4935937;29;20047;-83
2023/04/18 07:02:56;;;;;;;106.22;37.25;;;;;;;;;;4935177;29;20054;-83
2023/04/18 07:05:32;;;;;;;92.53;33.50;;;;;;;;;;4920135;29;20147;-81
2023/04/18 07:08:00;;;;;;;80.00;30.80;;;;;;;;;;4934579;29;20059;-83
2023/04/18 07:10:28;;;;;;;72.70;28.50;;;;;;;;;;4934845;29;20063;-82
2023/04/18 07:12:56;;;;;;;69.72;27.67;;;;;;;;;;4916561;29;20059;-82
2023/04/18 07:15:25;;;;;;;61.05;26.80;;;;;;;;;;4934933;29;20429;-82
2023/04/18 07:17:51;;;;;;;61.33;25.90;;;;;;;;;;4936803;29;20436;-81
2023/04/18 07:20:18;;;;;;;58.25;25.00;;;;;;;;;;4938322;29;20055;-82
2023/04/18 07:22:46;;;;;;;62.88;25.25;;;;;;;;;;4952135;29;20058;-82
2023/04/18 07:25:13;;;;;;;51.45;25.55;;;;;;;;;;4917695;29;20098;-81
2023/04/18 07:27:39;;;;;;;54.72;24.27;;;;;;;;;;4922231;29;20428;-80
2023/04/18 07:30:06;;;;;;;54.85;25.83;;;;;;;;;;4932818;29;20051;-80
2023/04/18 07:32:38;;;;;;;53.72;25.95;;;;;;;;;;4915600;29;20117;-79
2023/04/18 07:35:08;;;;;;;56.25;26.42;;;;;;;;;;4950281;29;20040;-80
2023/04/18 07:37:36;;;;;;;49.45;24.98;;;;;;;;;;4931264;29;20055;-81
2023/04/18 07:40:03;;;;;;;51.63;24.63;;;;;;;;;;4930096;29;20091;-81
2023/04/18 07:42:30;;;;;;;51.75;23.95;;;;;;;;;;4933373;29;20048;-81
2023/04/18 07:44:59;;;;;;;52.03;23.60;;;;;;;;;;4935016;29;20074;-81
2023/04/18 07:47:26;;;;;;;43.85;23.02;;;;;;;;;;4924863;29;20054;-82
2023/04/18 07:49:56;;;;;;;43.83;22.23;;;;;;;;;;4929002;29;20044;-82
2023/04/18 07:52:23;;;;;;;39.17;20.52;;;;;;;;;;4933820;29;20519;-81
2023/04/18 07:54:50;;;;;;;38.63;20.55;;;;;;;;;;4933638;29;20369;-81
2023/04/18 07:57:16;;;;;;;37.30;19.70;;;;;;;;;;4933021;29;20066;-82
2023/04/18 07:59:43;;;;;;;38.95;20.92;;;;;;;;;;4932151;29;20044;-82
2023/04/18 08:02:10;;;;;;;41.65;22.45;;;;;;;;;;4914213;29;20075;-80
2023/04/18 08:04:41;;;;;;;42.00;21.83;;;;;;;;;;4915804;29;20048;-82
2023/04/18 08:07:09;;;;;;;42.55;22.52;;;;;;;;;;4932542;29;20051;-82
2023/04/18 08:09:36;;;;;;;48.30;24.67;;;;;;;;;;4930220;29;20050;-80
2023/04/18 08:12:03;;;;;;;46.10;23.70;;;;;;;;;;4931551;29;20051;-82
2023/04/18 08:14:30;;;;;;;52.28;25.20;;;;;;;;;;4930543;29;20206;-79
2023/04/18 08:16:57;;;;;;;56.63;29.75;;;;;;;;;;4932413;29;20040;-82
2023/04/18 08:19:25;;;;;;;61.63;30.88;;;;;;;;;;4932165;29;20397;-81
2023/04/18 08:21:52;;;;;;;71.88;32.22;;;;;;;;;;4931922;29;20044;-82
2023/04/18 08:24:18;;;;;;;59.90;30.30;;;;;;;;;;4930388;29;20043;-81
2023/04/18 08:26:45;;;;;;;62.38;29.15;;;;;;;;;;4931861;29;20074;-80
2023/04/18 08:29:13;;;;;;;61.05;30.50;;;;;;;;;;4930450;29;20047;-81
2023/04/18 08:31:40;;;;;;;63.88;30.30;;;;;;;;;;4931521;29;20044;-80
2023/04/18 08:34:07;;;;;;;60.05;30.02;;;;;;;;;;4930906;29;20078;-80
2023/04/18 08:36:34;;;;;;;54.60;27.60;;;;;;;;;;4915468;29;20045;-82
2023/04/18 08:39:01;;;;;;;57.10;28.02;;;;;;;;;;4932433;29;20072;-81
2023/04/18 08:41:29;;;;;;;49.15;26.08;;;;;;;;;;4930447;29;20044;-82
2023/04/18 08:43:57;;;;;;;49.40;25.30;;;;;;;;;;4931004;29;20052;-82
2023/04/18 08:46:23;;;;;;;47.95;23.67;;;;;;;;;;4936954;29;20055;-81
2023/04/18 08:48:57;;;;;;;51.50;23.95;;;;;;;;;;4943154;29;20059;-81
2023/04/18 08:51:23;;;;;;;45.92;23.70;;;;;;;;;;4945322;29;20048;-80
2023/04/18 08:53:50;;;;;;;47.38;22.02;;;;;;;;;;4936040;29;20055;-82
2023/04/18 08:56:21;;;;;;;49.10;23.75;;;;;;;;;;4935447;29;20048;-82
2023/04/18 08:58:48;;;;;;;55.05;27.15;;;;;;;;;;4932463;29;20051;-81
2023/04/18 09:01:16;;;;;;;54.58;26.42;;;;;;;;;;4931942;29;20047;-81
2023/04/18 09:03:43;;;;;;;52.63;26.30;;;;;;;;;;4931348;29;20084;-81
2023/04/18 09:06:23;;;;;;;53.72;26.45;;;;;;;;;;4932637;29;20312;-81
2023/04/18 09:08:57;;;;;;;56.97;26.55;;;;;;;;;;4931771;29;20060;-81
2023/04/18 09:11:24;;;;;;;50.08;24.70;;;;;;;;;;4930946;29;20058;-81
2023/04/18 09:13:52;;;;;;;51.72;25.27;;;;;;;;;;4930431;29;20526;-81
2023/04/18 09:16:21;;;;;;;52.28;25.73;;;;;;;;;;4932069;29;20081;-81
2023/04/18 09:19:23;;;;;;;48.75;24.42;;;;;;;;;;4933528;29;20051;-82
2023/04/18 09:22:01;;;;;;;48.83;24.27;;;;;;;;;;4895759;29;20052;-83
2023/04/18 09:24:28;;;;;;;43.83;24.35;;;;;;;;;;4930016;29;20416;-81
2023/04/18 09:26:57;;;;;;;49.75;24.63;;;;;;;;;;4931253;29;20043;-82
2023/04/18 09:29:40;;;;;;;53.13;25.98;;;;;;;;;;4933851;29;20047;-80
2023/04/18 09:32:06;;;;;;;61.63;27.20;;;;;;;;;;4933374;29;20475;-81
2023/04/18 09:34:40;;;;;;;58.80;26.00;;;;;;;;;;4933097;29;20319;-80
2023/04/18 09:37:11;;;;;;;72.55;27.63;;;;;;;;;;4932855;29;20123;-82
2023/04/18 09:39:38;;;;;;;61.72;27.70;;;;;;;;;;4931680;29;20051;-82
2023/04/18 09:42:05;;;;;;;57.50;28.13;;;;;;;;;;4938431;29;20051;-81
2023/04/18 09:44:32;;;;;;;65.97;28.08;;;;;;;;;;4934875;29;20298;-80
2023/04/18 09:47:00;;;;;;;60.13;27.63;;;;;;;;;;4936909;29;20048;-79
2023/04/18 09:49:27;;;;;;;63.15;28.80;;;;;;;;;;4936486;29;20067;-80
2023/04/18 09:51:55;;;;;;;64.25;27.92;;;;;;;;;;4939163;29;20123;-81
2023/04/18 09:54:23;;;;;;;56.35;27.92;;;;;;;;;;4938357;29;20052;-81
2023/04/18 09:56:52;;;;;;;56.00;26.90;;;;;;;;;;4935232;29;20094;-81
2023/04/18 09:59:27;;;;;;;60.58;26.70;;;;;;;;;;4937172;29;20450;-82
2023/04/18 10:01:55;;;;;;;56.90;26.38;;;;;;;;;;4934464;29;20055;-80
2023/04/18 10:04:23;;;;;;;52.80;25.58;;;;;;;;;;4937518;29;20060;-82
2023/04/18 10:06:50;;;;;;;48.75;26.10;;;;;;;;;;4937554;29;20059;-82
2023/04/18 10:09:17;;;;;;;58.88;27.25;;;;;;;;;;4936872;29;20280;-83
2023/04/18 10:11:44;;;;;;;49.78;25.60;;;;;;;;;;4935910;29;20060;-82
2023/04/18 10:14:12;;;;;;;59.88;27.23;;;;;;;;;;4937805;29;20051;-82
2023/04/18 10:16:39;;;;;;;60.00;26.42;;;;;;;;;;4934674;29;20123;-81
2023/04/18 10:19:43;;;;;;;58.05;27.27;;;;;;;;;;4937076;29;20044;-80
2023/04/18 10:22:10;;;;;;;65.18;28.00;;;;;;;;;;4915528;29;20277;-81
2023/04/18 10:24:54;;;;;;;58.10;27.65;;;;;;;;;;4937884;29;20114;-81
2023/04/18 10:27:40;;;;;;;55.90;25.88;;;;;;;;;;4938011;29;20043;-80
2023/04/18 10:30:07;;;;;;;61.05;26.35;;;;;;;;;;4936067;29;20047;-82
2023/04/18 10:32:34;;;;;;;56.60;26.70;;;;;;;;;;4936771;29;20553;-81
2023/04/18 10:35:01;;;;;;;63.13;27.42;;;;;;;;;;4936220;29;20496;-81
2023/04/18 10:37:30;;;;;;;56.67;26.55;;;;;;;;;;4938223;29;20036;-80
2023/04/18 10:39:59;;;;;;;59.17;27.65;;;;;;;;;;4934206;29;20048;-81
2023/04/18 10:42:44;;;;;;;59.10;26.40;;;;;;;;;;4934318;29;20044;-79
2023/04/18 10:45:24;;;;;;;61.47;25.95;;;;;;;;;;4935447;29;20047;-80
2023/04/18 10:48:13;;;;;;;59.55;26.27;;;;;;;;;;4927913;29;20099;-81
2023/04/18 10:51:10;;;;;;;57.17;26.00;;;;;;;;;;4899545;29;20048;-80
2023/04/18 10:53:37;;;;;;;57.42;25.80;;;;;;;;;;4912191;29;20095;-81
2023/04/18 10:56:05;;;;;;;63.00;26.77;;;;;;;;;;4916905;29;20146;-80
2023/04/18 10:58:33;;;;;;;64.22;27.05;;;;;;;;;;4895709;29;20067;-81
2023/04/18 11:01:00;;;;;;;58.10;25.73;;;;;;;;;;4896608;29;20052;-80
2023/04/18 11:03:33;;;;;;;59.95;26.00;;;;;;;;;;4913245;29;20044;-80
2023/04/18 11:06:01;;;;;;;55.53;24.80;;;;;;;;;;4914516;29;20119;-80
2023/04/18 11:08:30;;;;;;;55.47;25.15;;;;;;;;;;4914311;29;20032;-81
2023/04/18 11:10:59;;;;;;;53.97;24.77;;;;;;;;;;4936016;29;20224;-80
2023/04/18 11:13:26;;;;;;;52.55;23.30;;;;;;;;;;4935323;29;20036;-81
2023/04/18 11:15:55;;;;;;;60.03;24.73;;;;;;;;;;4924718;29;20420;-81
2023/04/18 11:18:21;;;;;;;58.78;24.55;;;;;;;;;;4914615;29;20044;-80
2023/04/18 11:20:49;;;;;;;56.80;24.45;;;;;;;;;;4915535;29;20062;-81
2023/04/18 11:23:18;;;;;;;60.85;24.00;;;;;;;;;;4908735;29;20036;-81
2023/04/18 11:25:48;;;;;;;56.40;25.83;;;;;;;;;;4916993;29;20060;-81
2023/04/18 11:28:18;;;;;;;51.47;23.80;;;;;;;;;;4930082;28;20072;-81
2023/04/18 11:30:44;;;;;;;59.20;23.65;;;;;;;;;;4916142;29;20348;-81
2023/04/18 11:33:12;;;;;;;55.33;23.63;;;;;;;;;;4899322;29;20182;-82
2023/04/18 11:35:43;;;;;;;66.30;25.88;;;;;;;;;;4899969;29;20048;-81
2023/04/18 11:38:11;;;;;;;59.75;25.10;;;;;;;;;;4899015;29;20048;-82
2023/04/18 11:40:46;;;;;;;63.28;26.00;;;;;;;;;;4915672;29;20041;-81
2023/04/18 11:43:18;;;;;;;61.75;26.38;;;;;;;;;;4916176;29;20064;-81
2023/04/18 11:45:51;;;;;;;61.28;25.08;;;;;;;;;;4900302;29;20500;-81
2023/04/18 11:48:18;;;;;;;66.40;27.13;;;;;;;;;;4932931;29;20447;-80
2023/04/18 11:50:44;;;;;;;65.72;27.30;;;;;;;;;;4943536;29;20059;-81
2023/04/18 11:53:13;;;;;;;58.72;26.08;;;;;;;;;;4934569;29;20055;-81
2023/04/18 11:55:40;;;;;;;62.05;27.48;;;;;;;;;;4932629;29;20043;-80
2023/04/18 11:58:08;;;;;;;54.72;25.55;;;;;;;;;;4931732;29;20078;-79
2023/04/18 12:00:34;;;;;;;54.97;25.67;;;;;;;;;;4932343;29;20051;-80
2023/04/18 12:03:08;;;;;;;54.45;25.30;;;;;;;;;;4926867;29;20484;-80
2023/04/18 12:05:40;;;;;;;56.05;26.20;;;;;;;;;;4934247;29;20353;-80
2023/04/18 12:08:12;;;;;;;52.33;25.42;;;;;;;;;;4931698;29;20048;-81
2023/04/18 12:10:49;;;;;;;52.60;24.52;;;;;;;;;;4933310;29;20078;-80
2023/04/18 12:13:17;;;;;;;56.90;25.33;;;;;;;;;;4931708;29;20119;-80
2023/04/18 12:15:45;;;;;;;52.50;24.60;;;;;;;;;;4930412;29;20061;-80
2023/04/18 12:18:14;;;;;;;45.90;23.63;;;;;;;;;;4930536;29;20059;-80
2023/04/18 12:20:48;;;;;;;55.20;24.10;;;;;;;;;;4930607;29;20185;-81
2023/04/18 12:23:28;;;;;;;52.83;24.38;;;;;;;;;;4929493;29;20040;-81
2023/04/18 12:26:06;;;;;;;44.70;22.42;;;;;;;;;;4931119;29;20043;-82
2023/04/18 12:28:34;;;;;;;49.33;22.17;;;;;;;;;;4931531;29;20515;-81
2023/04/18 12:31:01;;;;;;;44.28;21.45;;;;;;;;;;4931964;29;20043;-81
2023/04/18 12:33:27;;;;;;;42.58;21.45;;;;;;;;;;4929937;29;20464;-81
2023/04/18 12:35:55;;;;;;;42.17;21.77;;;;;;;;;;4932275;29;20054;-81
2023/04/18 12:38:22;;;;;;;39.20;20.45;;;;;;;;;;4930832;29;20124;-81
2023/04/18 12:40:50;;;;;;;46.67;22.27;;;;;;;;;;4930195;29;20055;-79
2023/04/18 12:43:17;;;;;;;38.78;20.02;;;;;;;;;;4932165;29;20048;-80
2023/04/18 12:45:45;;;;;;;44.15;22.20;;;;;;;;;;4932404;29;20062;-81
2023/04/18 12:48:12;;;;;;;43.97;23.23;;;;;;;;;;4922479;29;20044;-81
2023/04/18 12:50:40;;;;;;;48.20;23.02;;;;;;;;;;4932219;29;20048;-81
2023/04/18 12:53:07;;;;;;;43.75;22.63;;;;;;;;;;4931814;29;20530;-81
2023/04/18 12:55:35;;;;;;;50.45;24.50;;;;;;;;;;4933358;29;20044;-80
2023/04/18 12:58:03;;;;;;;47.38;23.70;;;;;;;;;;4931704;29;20147;-82
2023/04/18 13:00:31;;;;;;;46.17;24.13;;;;;;;;;;4932109;29;20577;-81
2023/04/18 13:02:59;;;;;;;52.42;24.73;;;;;;;;;;4931336;29;20123;-80
2023/04/18 13:05:27;;;;;;;49.13;25.33;;;;;;;;;;4933791;29;20167;-80
2023/04/18 13:07:58;;;;;;;49.50;24.55;;;;;;;;;;4940957;29;20118;-80
2023/04/18 13:10:42;;;;;;;50.28;25.55;;;;;;;;;;4939559;29;20048;-79
2023/04/18 13:13:09;;;;;;;55.55;27.92;;;;;;;;;;4940283;29;20047;-81
2023/04/18 13:15:37;;;;;;;55.20;28.00;;;;;;;;;;4943888;29;20107;-81
2023/04/18 13:18:05;;;;;;;56.03;28.10;;;;;;;;;;4941982;29;20048;-81
2023/04/18 13:20:33;;;;;;;55.70;26.10;;;;;;;;;;4935172;29;20051;-82
2023/04/18 13:23:04;;;;;;;56.00;28.70;;;;;;;;;;4934750;29;20407;-82
2023/04/18 13:25:31;;;;;;;69.25;31.85;;;;;;;;;;4906844;29;20492;-82
2023/04/18 13:27:59;;;;;;;65.30;31.00;;;;;;;;;;4904584;29;20067;-81
2023/04/18 13:30:34;;;;;;;70.38;31.75;;;;;;;;;;4921707;29;20044;-81
2023/04/18 13:33:01;;;;;;;72.43;32.45;;;;;;;;;;4905923;29;20054;-81
2023/04/18 13:35:28;;;;;;;71.90;32.75;;;;;;;;;;4910160;29;20052;-80
2023/04/18 13:37:56;;;;;;;65.10;31.00;;;;;;;;;;4915714;29;20058;-79
2023/04/18 13:40:23;;;;;;;74.43;33.25;;;;;;;;;;4920949;29;20059;-81
2023/04/18 13:42:50;;;;;;;69.55;32.90;;;;;;;;;;4913899;29;20127;-82
2023/04/18 13:45:19;;;;;;;73.82;34.33;;;;;;;;;;4897089;29;20059;-82
2023/04/18 13:47:45;;;;;;;72.13;32.65;;;;;;;;;;4906279;29;20055;-81
2023/04/18 13:50:12;;;;;;;75.00;33.38;;;;;;;;;;4917849;29;20122;-80
2023/04/18 13:52:39;;;;;;;63.78;31.40;;;;;;;;;;4918101;29;20052;-81
2023/04/18 13:55:07;;;;;;;64.97;32.05;;;;;;;;;;4924733;29;20195;-81
2023/04/18 13:57:39;;;;;;;67.53;31.45;;;;;;;;;;4936617;28;20120;-82
2023/04/18 14:00:08;;;;;;;66.22;31.20;;;;;;;;;;4919332;29;20139;-79
2023/04/18 14:02:38;;;;;;;73.30;32.42;;;;;;;;;;4905145;29;20090;-83
2023/04/18 14:05:06;;;;;;;69.88;31.85;;;;;;;;;;4905647;29;20550;-81
2023/04/18 14:07:33;;;;;;;70.88;32.63;;;;;;;;;;4909158;29;20514;-82
2023/04/18 14:10:00;;;;;;;60.50;29.95;;;;;;;;;;4921871;29;20047;-81
2023/04/18 14:12:27;;;;;;;66.80;31.10;;;;;;;;;;4912103;29;20044;-78
2023/04/18 14:14:53;;;;;;;67.40;30.10;;;;;;;;;;4933223;29;20071;-82
2023/04/18 14:17:20;;;;;;;70.55;32.83;;;;;;;;;;4917208;29;20588;-79
2023/04/18 14:19:50;;;;;;;61.50;29.83;;;;;;;;;;4920145;29;20074;-79
2023/04/18 14:22:17;;;;;;;65.90;29.70;;;;;;;;;;4904485;29;20110;-79
2023/04/18 14:24:45;;;;;;;65.38;30.27;;;;;;;;;;4920373;29;20531;-80
2023/04/18 14:27:11;;;;;;;58.13;29.13;;;;;;;;;;4901903;29;20052;-81